Time;durP1;ratioP1;P1;durP2;ratioP2;P2;SDS_P1;SDS_P2;PMS_P1;PMS_P2;Temp;Humidity;BMP_temperature;BMP_pressure;BME280_temperature;BME280_humidity;BME280_pressure;Samples;Min_cycle;Max_cycle;Signal;HPM_P1;HPM_P2
2022/06/07 00:02:03;;;;;;;3.55;1.50;;;15.30;99.90;;;;;;5096705;28;20688;-93
2022/06/07 00:04:28;;;;;;;9.98;1.73;;;15.30;99.90;;;;;;5095478;28;20170;-93
2022/06/07 00:06:54;;;;;;;3.08;1.77;;;15.30;99.90;;;;;;5095629;28;20176;-86
2022/06/07 00:09:19;;;;;;;2.83;1.27;;;15.10;99.90;;;;;;5095220;28;20181;-85
2022/06/07 00:11:45;;;;;;;9.50;2.20;;;15.20;99.90;;;;;;5095137;28;20245;-90
2022/06/07 00:14:10;;;;;;;2.95;1.80;;;15.20;99.90;;;;;;5094059;28;20199;-83
2022/06/07 00:16:36;;;;;;;3.13;1.50;;;15.10;99.90;;;;;;5095304;28;20923;-89
2022/06/07 00:19:02;;;;;;;7.15;1.77;;;15.10;99.90;;;;;;5093950;28;20194;-82
2022/06/07 00:21:29;;;;;;;1.83;1.70;;;15.10;99.90;;;;;;5094037;28;20166;-85
2022/06/07 00:24:01;;;;;;;4.72;1.55;;;15.20;99.90;;;;;;5094347;28;20162;-86
2022/06/07 00:26:29;;;;;;;3.40;2.13;;;15.10;99.90;;;;;;5094552;28;20649;-85
2022/06/07 00:28:55;;;;;;;2.05;1.65;;;15.10;99.90;;;;;;5095146;28;20553;-87
2022/06/07 00:31:21;;;;;;;6.55;1.58;;;15.10;99.90;;;;;;5094294;28;20162;-85
2022/06/07 00:33:47;;;;;;;5.13;1.70;;;15.10;99.90;;;;;;5093780;28;20169;-84
2022/06/07 00:36:14;;;;;;;2.33;1.50;;;14.90;99.90;;;;;;5095533;28;20193;-87
2022/06/07 00:38:43;;;;;;;5.60;1.60;;;15.00;99.90;;;;;;5094451;28;20262;-87
2022/06/07 00:41:10;;;;;;;2.90;1.63;;;15.00;99.90;;;;;;5095278;28;20161;-85
2022/06/07 00:43:36;;;;;;;13.43;2.03;;;14.90;99.90;;;;;;5095225;28;20197;-88
2022/06/07 00:46:09;;;;;;;3.13;2.00;;;14.90;99.90;;;;;;5096497;28;20515;-86
2022/06/07 00:48:36;;;;;;;4.43;1.60;;;14.90;99.90;;;;;;5094748;28;20216;-82
2022/06/07 00:51:10;;;;;;;8.80;2.20;;;14.80;99.90;;;;;;5094946;28;20177;-91
2022/06/07 00:53:36;;;;;;;6.13;2.22;;;14.80;99.90;;;;;;5095463;28;20162;-85
2022/06/07 00:56:03;;;;;;;5.30;2.00;;;15.00;99.90;;;;;;5097336;28;20169;-85
2022/06/07 00:58:30;;;;;;;6.03;1.92;;;14.90;99.90;;;;;;5095911;28;20764;-88
2022/06/07 01:00:57;;;;;;;5.78;1.98;;;14.70;99.90;;;;;;5094720;28;20166;-83
2022/06/07 01:03:24;;;;;;;3.38;2.28;;;14.80;99.90;;;;;;5094576;28;20162;-87
2022/06/07 01:05:51;;;;;;;3.30;2.10;;;14.80;99.90;;;;;;5092792;28;20162;-82
2022/06/07 01:11:03;;;;;;;7.40;2.05;;;14.90;99.90;;;;;;5098636;28;20533;-85
2022/06/07 01:13:32;;;;;;;4.25;1.73;;;14.80;99.90;;;;;;5097902;28;20291;-93
2022/06/07 01:16:01;;;;;;;6.07;1.95;;;14.70;99.90;;;;;;5094406;28;20571;-87
2022/06/07 01:18:28;;;;;;;4.35;1.95;;;14.80;99.90;;;;;;5094362;28;20209;-85
2022/06/07 01:21:16;;;;;;;4.53;1.73;;;14.80;99.90;;;;;;5096430;28;20164;-89
2022/06/07 01:23:43;;;;;;;3.28;1.80;;;14.80;99.90;;;;;;5093333;28;20219;-93
2022/06/07 01:26:10;;;;;;;5.18;1.73;;;14.80;99.90;;;;;;5091955;28;20162;-83
2022/06/07 01:28:36;;;;;;;5.97;2.03;;;14.60;99.90;;;;;;5094402;28;20230;-89
2022/06/07 01:31:02;;;;;;;4.35;1.63;;;14.50;99.90;;;;;;5092791;28;20174;-89
2022/06/07 01:33:27;;;;;;;6.93;1.88;;;14.50;99.90;;;;;;5093976;28;20165;-87
2022/06/07 01:36:05;;;;;;;11.82;1.90;;;14.30;99.90;;;;;;5094217;28;20170;-87
2022/06/07 01:38:32;;;;;;;8.30;1.90;;;14.40;99.90;;;;;;5093424;28;20220;-84
2022/06/07 01:43:41;;;;;;;4.60;2.10;;;14.60;99.90;;;;;;5103342;28;20188;-84
2022/06/07 01:46:07;;;;;;;1.63;1.52;;;14.60;99.90;;;;;;5105005;28;20244;-85
2022/06/07 01:48:33;;;;;;;3.88;1.90;;;14.70;99.90;;;;;;5100821;28;20190;-83
2022/06/07 01:51:03;;;;;;;4.53;2.25;;;14.60;99.90;;;;;;5098200;28;20169;-83
2022/06/07 01:53:29;;;;;;;4.60;2.03;;;14.60;99.90;;;;;;5094604;28;20194;-87
2022/06/07 01:56:07;;;;;;;2.45;2.03;;;14.50;99.90;;;;;;5094728;28;20621;-89
2022/06/07 01:58:33;;;;;;;6.15;2.25;;;14.50;99.90;;;;;;5093375;28;20224;-86
2022/06/07 02:00:59;;;;;;;3.55;2.20;;;14.40;99.90;;;;;;5093158;28;20166;-89
2022/06/07 02:03:24;;;;;;;3.35;2.55;;;14.20;99.90;;;;;;5093622;28;20502;-85
2022/06/07 02:05:58;;;;;;;4.07;2.00;;;14.10;99.90;;;;;;5093572;28;20161;-84
2022/06/07 02:08:24;;;;;;;6.55;2.00;;;14.30;99.90;;;;;;5095207;28;20162;-89
2022/06/07 02:10:50;;;;;;;2.38;2.17;;;14.40;99.90;;;;;;5093071;28;20230;-85
2022/06/07 02:13:16;;;;;;;8.70;2.22;;;14.40;99.90;;;;;;5094013;28;20166;-93
2022/06/07 02:15:41;;;;;;;3.78;1.92;;;14.40;99.90;;;;;;5092476;28;20197;-85
2022/06/07 02:18:07;;;;;;;5.60;2.40;;;14.40;99.90;;;;;;5092469;28;20213;-88
2022/06/07 02:20:33;;;;;;;3.63;1.95;;;14.30;99.90;;;;;;5098594;28;20625;-81
2022/06/07 02:22:58;;;;;;;2.33;2.05;;;14.40;99.90;;;;;;5105244;28;20207;-80
2022/06/07 02:25:24;;;;;;;2.80;1.95;;;14.10;99.90;;;;;;5105678;28;20162;-80
2022/06/07 02:27:49;;;;;;;11.10;2.22;;;14.10;99.90;;;;;;5105081;28;20186;-82
2022/06/07 02:30:16;;;;;;;4.22;2.28;;;14.30;99.90;;;;;;5104755;28;20182;-82
2022/06/07 02:32:42;;;;;;;3.25;1.73;;;14.20;99.90;;;;;;5109195;28;20193;-81
2022/06/07 02:35:09;;;;;;;7.18;2.15;;;14.20;99.90;;;;;;5105621;28;20166;-81
2022/06/07 02:37:36;;;;;;;6.93;1.98;;;14.30;99.90;;;;;;5105019;28;20212;-80
2022/06/07 02:40:03;;;;;;;5.75;2.10;;;14.20;99.90;;;;;;5108959;28;20676;-81
2022/06/07 02:42:29;;;;;;;2.50;2.10;;;14.20;99.90;;;;;;5110113;28;20158;-79
2022/06/07 02:44:55;;;;;;;6.38;2.40;;;14.50;99.90;;;;;;5111939;28;20204;-81
2022/06/07 02:47:21;;;;;;;3.53;2.50;;;14.60;99.90;;;;;;5108707;28;20162;-82
2022/06/07 02:49:47;;;;;;;5.32;2.35;;;14.70;99.90;;;;;;5098107;28;20182;-82
2022/06/07 02:52:12;;;;;;;4.35;2.05;;;14.60;99.90;;;;;;5108190;28;20169;-83
2022/06/07 02:54:38;;;;;;;4.20;2.40;;;14.60;99.90;;;;;;5109306;28;20218;-80
2022/06/07 02:57:04;;;;;;;4.65;2.10;;;14.50;99.90;;;;;;5108552;28;20220;-81
2022/06/07 02:59:30;;;;;;;6.88;2.75;;;14.60;99.90;;;;;;5109663;28;20282;-80
2022/06/07 03:01:55;;;;;;;2.83;2.08;;;14.60;99.90;;;;;;5112277;28;20146;-82
2022/06/07 03:04:21;;;;;;;6.60;2.83;;;14.70;99.90;;;;;;5107154;28;20162;-88
2022/06/07 03:06:47;;;;;;;2.63;2.10;;;14.40;99.90;;;;;;5098945;28;20169;-93
2022/06/07 03:09:13;;;;;;;3.90;2.50;;;14.30;99.90;;;;;;5097912;28;20190;-85
2022/06/07 03:11:38;;;;;;;9.93;2.70;;;14.20;99.90;;;;;;5097874;28;20491;-86
2022/06/07 03:14:05;;;;;;;5.82;3.55;;;14.00;99.90;;;;;;5097445;28;20260;-88
2022/06/07 03:16:31;;;;;;;9.18;2.42;;;13.90;99.90;;;;;;5097568;28;20157;-89
2022/06/07 03:18:57;;;;;;;6.50;2.40;;;14.00;99.90;;;;;;5097460;28;20186;-86
2022/06/07 03:21:23;;;;;;;3.15;2.40;;;14.00;99.90;;;;;;5097167;28;20165;-84
2022/06/07 03:23:48;;;;;;;4.00;2.88;;;14.00;99.90;;;;;;5097479;28;20299;-88
2022/06/07 03:26:14;;;;;;;3.90;2.53;;;14.10;99.90;;;;;;5097401;28;20165;-89
2022/06/07 03:28:40;;;;;;;8.52;2.47;;;14.20;99.90;;;;;;5096140;28;20205;-87
2022/06/07 03:31:14;;;;;;;5.15;2.80;;;14.20;99.90;;;;;;5096996;28;20162;-84
2022/06/07 03:33:41;;;;;;;7.20;2.70;;;14.30;99.90;;;;;;5097158;28;20614;-93
2022/06/07 03:36:15;;;;;;;6.40;3.00;;;14.30;99.90;;;;;;5096128;28;20162;-89
2022/06/07 03:38:41;;;;;;;3.17;2.10;;;14.40;99.90;;;;;;5095585;28;20251;-85
2022/06/07 03:41:07;;;;;;;5.13;2.30;;;14.50;99.90;;;;;;5097288;28;20197;-88
2022/06/07 03:43:33;;;;;;;9.65;2.35;;;14.50;99.90;;;;;;5097557;28;20168;-90
2022/06/07 03:46:19;;;;;;;4.70;2.67;;;14.60;99.90;;;;;;5097054;28;20169;-93
2022/06/07 03:48:46;;;;;;;3.03;2.10;;;14.70;99.90;;;;;;5096263;28;20190;-91
2022/06/07 03:51:14;;;;;;;4.03;2.40;;;14.90;99.90;;;;;;5097886;28;20287;-83
2022/06/07 03:53:40;;;;;;;6.15;2.30;;;15.00;99.90;;;;;;5095083;28;20166;-92
2022/06/07 03:56:06;;;;;;;7.10;2.38;;;15.10;99.90;;;;;;5094815;28;20651;-87
2022/06/07 03:58:33;;;;;;;6.32;2.67;;;15.20;99.90;;;;;;5094668;28;20220;-82
2022/06/07 04:01:01;;;;;;;6.40;2.50;;;15.10;99.90;;;;;;5094570;28;20170;-89
2022/06/07 04:03:28;;;;;;;10.27;2.38;;;15.00;99.90;;;;;;5094553;28;20315;-87
2022/06/07 04:05:55;;;;;;;2.92;2.08;;;15.00;99.90;;;;;;5095921;28;20154;-91
2022/06/07 04:08:21;;;;;;;4.22;1.95;;;15.00;99.90;;;;;;5094740;28;20178;-92
2022/06/07 04:10:58;;;;;;;3.67;2.25;;;15.10;99.90;;;;;;5095837;28;20256;-88
2022/06/07 04:13:26;;;;;;;3.78;2.03;;;15.10;99.90;;;;;;5094357;28;20219;-87
2022/06/07 04:15:52;;;;;;;5.75;1.80;;;15.40;99.90;;;;;;5094483;28;20165;-84
2022/06/07 04:18:18;;;;;;;3.97;2.42;;;15.60;99.90;;;;;;5095281;28;20216;-90
2022/06/07 04:20:44;;;;;;;7.55;2.28;;;15.60;99.90;;;;;;5095466;28;20173;-87
2022/06/07 04:23:15;;;;;;;4.90;2.30;;;15.60;99.90;;;;;;5095054;28;20859;-87
2022/06/07 04:25:41;;;;;;;1.92;1.77;;;15.70;99.90;;;;;;5094158;28;20158;-87
2022/06/07 04:28:07;;;;;;;3.15;1.77;;;15.80;99.90;;;;;;5095378;28;20245;-82
2022/06/07 04:30:33;;;;;;;7.53;2.22;;;15.80;99.90;;;;;;5094074;28;20170;-84
2022/06/07 04:32:59;;;;;;;2.80;1.98;;;15.80;99.90;;;;;;5093724;28;20229;-86
2022/06/07 04:35:25;;;;;;;5.80;2.38;;;15.70;99.90;;;;;;5095313;28;20208;-89
2022/06/07 04:37:53;;;;;;;3.97;1.73;;;15.80;99.90;;;;;;5094158;28;20224;-89
2022/06/07 04:40:19;;;;;;;3.53;2.22;;;15.90;99.90;;;;;;5093765;28;20182;-81
2022/06/07 04:42:45;;;;;;;3.97;2.33;;;15.70;99.90;;;;;;5094975;28;20170;-86
2022/06/07 04:45:14;;;;;;;10.40;2.40;;;15.90;99.90;;;;;;5093768;28;20219;-88
2022/06/07 04:47:41;;;;;;;4.30;1.63;;;16.10;99.90;;;;;;5095615;28;20176;-84
2022/06/07 04:50:08;;;;;;;7.15;1.83;;;16.30;99.90;;;;;;5101269;28;20224;-81
2022/06/07 04:52:34;;;;;;;8.35;1.98;;;16.40;99.90;;;;;;5103786;28;20162;-81
2022/06/07 04:54:59;;;;;;;3.95;1.42;;;16.50;99.90;;;;;;5105687;28;20174;-79
2022/06/07 04:57:25;;;;;;;3.67;1.98;;;16.60;99.90;;;;;;5098939;28;20276;-84
2022/06/07 04:59:51;;;;;;;4.63;1.85;;;16.60;99.90;;;;;;5095034;28;20259;-87
2022/06/07 05:02:16;;;;;;;5.40;1.83;;;16.70;99.90;;;;;;5092967;28;20701;-82
2022/06/07 05:04:42;;;;;;;2.92;1.30;;;16.90;99.90;;;;;;5093306;28;20173;-88
2022/06/07 05:07:07;;;;;;;5.22;2.08;;;17.20;99.90;;;;;;5093479;28;20165;-89
2022/06/07 05:09:33;;;;;;;2.33;1.60;;;17.40;99.90;;;;;;5094349;28;20549;-87
2022/06/07 05:11:59;;;;;;;2.35;1.58;;;17.50;99.90;;;;;;5094016;28;20189;-90
2022/06/07 05:14:25;;;;;;;5.05;1.52;;;17.60;99.90;;;;;;5093509;28;20166;-89
2022/06/07 05:16:51;;;;;;;7.30;1.30;;;17.80;99.90;;;;;;5094166;28;20672;-84
2022/06/07 05:19:18;;;;;;;7.63;1.60;;;17.70;99.90;;;;;;5093090;28;20200;-86
2022/06/07 05:21:45;;;;;;;2.88;1.48;;;18.00;99.90;;;;;;5094162;28;20162;-86
2022/06/07 05:24:11;;;;;;;6.10;1.55;;;17.60;99.90;;;;;;5095107;22;20219;-86
2022/06/07 05:26:40;;;;;;;4.22;1.70;;;17.60;99.90;;;;;;5034471;28;20171;-86
2022/06/07 05:29:14;;;;;;;8.57;1.38;;;17.60;99.90;;;;;;5041600;28;20198;-86
2022/06/07 05:31:40;;;;;;;5.57;1.95;;;17.70;99.90;;;;;;5052984;28;20163;-85
2022/06/07 05:34:06;;;;;;;6.72;1.80;;;17.80;99.90;;;;;;5053087;28;20257;-84
2022/06/07 05:36:32;;;;;;;3.65;1.60;;;17.90;99.90;;;;;;5052707;28;20227;-87
2022/06/07 05:38:57;;;;;;;3.47;1.60;;;17.90;99.90;;;;;;5053568;28;20215;-84
2022/06/07 05:41:25;;;;;;;10.57;2.10;;;17.70;99.90;;;;;;5053846;28;20163;-85
2022/06/07 05:43:51;;;;;;;4.07;1.75;;;17.50;99.90;;;;;;5053674;28;20174;-85
2022/06/07 05:46:17;;;;;;;5.80;1.60;;;17.80;99.90;;;;;;5052831;28;20167;-86
2022/06/07 05:48:43;;;;;;;8.75;2.20;;;17.80;99.90;;;;;;5052539;28;20651;-85
2022/06/07 05:51:09;;;;;;;6.00;1.90;;;18.00;99.90;;;;;;5052425;28;20178;-86
2022/06/07 05:53:36;;;;;;;6.38;1.38;;;18.10;99.90;;;;;;5052760;28;20602;-85
2022/06/07 05:56:07;;;;;;;4.22;1.40;;;18.10;99.90;;;;;;5052448;28;20240;-85
2022/06/07 05:58:34;;;;;;;4.72;1.25;;;18.00;99.90;;;;;;5051977;28;20311;-84
2022/06/07 06:01:00;;;;;;;4.82;1.55;;;18.10;99.90;;;;;;5052604;28;20254;-85
2022/06/07 06:03:25;;;;;;;4.07;1.52;;;18.30;99.90;;;;;;5052375;28;20215;-85
2022/06/07 06:05:51;;;;;;;10.57;1.15;;;18.20;99.90;;;;;;5053678;28;20167;-86
2022/06/07 06:11:07;;;;;;;2.17;1.70;;;18.40;99.90;;;;;;5053938;28;20316;-85
2022/06/07 06:13:35;;;;;;;2.45;1.20;;;18.60;99.90;;;;;;5052057;28;20167;-86
2022/06/07 06:16:07;;;;;;;5.45;1.42;;;18.50;99.90;;;;;;5052329;28;20216;-86
2022/06/07 06:18:33;;;;;;;4.85;1.63;;;18.50;99.90;;;;;;5036070;28;20214;-86
2022/06/07 06:20:59;;;;;;;8.38;1.55;;;18.50;99.90;;;;;;5053460;28;20242;-86
2022/06/07 06:23:24;;;;;;;8.65;1.40;;;18.70;99.90;;;;;;5053682;28;20655;-86
2022/06/07 06:25:50;;;;;;;4.97;1.35;;;19.00;99.90;;;;;;5052237;28;20183;-86
2022/06/07 06:28:16;;;;;;;2.72;1.35;;;19.40;99.90;;;;;;5052023;28;20210;-86
2022/06/07 06:30:45;;;;;;;1.17;1.08;;;19.40;99.90;;;;;;5052176;28;20170;-86
2022/06/07 06:33:14;;;;;;;4.72;1.40;;;19.10;99.90;;;;;;5051636;28;20269;-87
2022/06/07 06:35:47;;;;;;;9.18;1.50;;;19.20;99.90;;;;;;5052100;28;20199;-87
2022/06/07 06:38:13;;;;;;;3.70;1.33;;;19.00;99.90;;;;;;5052089;28;20206;-86
2022/06/07 06:40:38;;;;;;;4.97;1.02;;;19.20;99.90;;;;;;5051972;28;20527;-85
2022/06/07 06:43:04;;;;;;;2.17;1.00;;;19.40;99.90;;;;;;5051524;28;20182;-84
2022/06/07 06:45:30;;;;;;;5.80;1.20;;;19.40;99.90;;;;;;5052155;28;20175;-85
2022/06/07 06:47:55;;;;;;;2.08;1.10;;;19.50;99.90;;;;;;5051969;28;20660;-81
2022/06/07 06:50:21;;;;;;;2.42;1.00;;;19.50;99.90;;;;;;5051500;28;20274;-80
2022/06/07 06:52:46;;;;;;;1.38;0.77;;;19.50;99.90;;;;;;5050919;28;20171;-81
2022/06/07 06:55:12;;;;;;;2.53;1.08;;;19.70;99.90;;;;;;5051971;28;20171;-80
2022/06/07 06:57:39;;;;;;;1.80;1.00;;;19.80;99.90;;;;;;5052212;28;20260;-79
2022/06/07 07:00:08;;;;;;;3.40;1.00;;;19.80;99.90;;;;;;5052239;28;20214;-80
2022/06/07 07:02:33;;;;;;;4.50;1.00;;;19.80;99.90;;;;;;5054701;28;20219;-79
2022/06/07 07:05:00;;;;;;;1.98;1.25;;;19.80;99.90;;;;;;5067980;28;20163;-79
2022/06/07 07:07:26;;;;;;;3.05;1.25;;;19.90;99.90;;;;;;5058696;28;20628;-81
2022/06/07 07:09:55;;;;;;;3.90;1.42;;;20.10;99.90;;;;;;5056843;28;20198;-80
2022/06/07 07:12:21;;;;;;;1.45;0.95;;;20.10;99.90;;;;;;5055391;28;20199;-80
2022/06/07 07:14:48;;;;;;;5.55;1.00;;;20.30;99.90;;;;;;5051561;28;20577;-81
2022/06/07 07:17:14;;;;;;;5.40;1.20;;;20.60;99.90;;;;;;5051347;28;20191;-82
2022/06/07 07:19:39;;;;;;;1.63;0.95;;;20.90;99.90;;;;;;5051513;28;20191;-81
2022/06/07 07:22:06;;;;;;;2.85;1.15;;;20.70;99.90;;;;;;5052149;28;20167;-81
2022/06/07 07:24:32;;;;;;;3.50;0.98;;;20.70;99.90;;;;;;5046419;28;20186;-84
2022/06/07 07:26:58;;;;;;;4.95;1.15;;;20.70;99.90;;;;;;5032322;28;20691;-81
2022/06/07 07:29:24;;;;;;;1.40;1.00;;;20.90;99.90;;;;;;5034436;28;20206;-81
2022/06/07 07:31:50;;;;;;;4.30;0.85;;;20.70;99.90;;;;;;5035029;28;20164;-80
2022/06/07 07:34:17;;;;;;;2.55;0.80;;;20.90;99.90;;;;;;5033512;28;20178;-81
2022/06/07 07:36:46;;;;;;;4.22;0.90;;;20.90;99.90;;;;;;5033670;28;20172;-80
2022/06/07 07:39:13;;;;;;;5.07;1.20;;;20.90;99.90;;;;;;5034735;28;20188;-80
2022/06/07 07:41:39;;;;;;;2.20;1.08;;;21.10;99.90;;;;;;5033456;28;20164;-81
2022/06/07 07:44:09;;;;;;;1.83;0.80;;;21.40;99.90;;;;;;5034552;28;20176;-82
2022/06/07 07:46:44;;;;;;;3.10;1.05;;;21.50;99.90;;;;;;5036759;28;20678;-82
2022/06/07 07:49:13;;;;;;;3.38;1.13;;;21.80;99.90;;;;;;5034137;28;20187;-81
2022/06/07 07:51:40;;;;;;;2.65;0.82;;;21.90;99.90;;;;;;5034413;28;20195;-80
2022/06/07 07:54:09;;;;;;;2.35;1.00;;;21.50;99.90;;;;;;5034013;28;20171;-81
2022/06/07 07:56:35;;;;;;;5.10;0.90;;;21.50;99.90;;;;;;5034248;28;20190;-81
2022/06/07 07:59:02;;;;;;;2.83;1.45;;;21.60;99.90;;;;;;5052154;28;20573;-82
2022/06/07 08:01:29;;;;;;;2.38;0.88;;;21.40;99.90;;;;;;5054520;28;20163;-81
2022/06/07 08:03:57;;;;;;;5.65;1.10;;;21.20;99.90;;;;;;5047144;28;20184;-82
2022/06/07 08:06:25;;;;;;;3.85;1.02;;;21.10;99.90;;;;;;5045520;28;20531;-82
2022/06/07 08:08:54;;;;;;;3.25;1.30;;;20.80;99.90;;;;;;5053456;28;20195;-82
2022/06/07 08:11:22;;;;;;;4.35;1.13;;;20.90;99.90;;;;;;5054344;28;20183;-81
2022/06/07 08:13:48;;;;;;;3.67;1.20;;;21.10;99.90;;;;;;5053109;28;20175;-81
2022/06/07 08:16:14;;;;;;;5.13;1.30;;;20.80;99.90;;;;;;5054140;28;20177;-81
2022/06/07 08:18:41;;;;;;;2.22;1.38;;;20.90;99.90;;;;;;5054038;28;20282;-81
2022/06/07 08:21:14;;;;;;;9.15;1.40;;;21.20;99.90;;;;;;5053376;28;20262;-81
2022/06/07 08:23:40;;;;;;;5.47;1.60;;;21.30;99.90;;;;;;5050610;28;20225;-82
2022/06/07 08:26:06;;;;;;;1.95;1.40;;;21.40;99.90;;;;;;5049232;28;20180;-81
2022/06/07 08:28:33;;;;;;;4.05;1.30;;;21.20;99.90;;;;;;5048580;28;20199;-82
2022/06/07 08:30:59;;;;;;;2.53;1.17;;;21.10;99.90;;;;;;5050105;28;20167;-81
2022/06/07 08:38:56;;;;;;;10.65;1.40;;;20.80;99.90;;;;;;5051847;28;20217;-80
2022/06/07 08:41:31;;;;;;;5.80;1.30;;;21.10;99.90;;;;;;5053219;28;20249;-81
2022/06/07 08:44:06;;;;;;;3.50;1.17;;;21.10;99.90;;;;;;5053322;28;20167;-82
2022/06/07 08:46:34;;;;;;;5.57;1.50;;;21.30;99.90;;;;;;5053466;28;20508;-82
2022/06/07 08:49:00;;;;;;;2.25;1.25;;;21.60;99.90;;;;;;5049034;28;20554;-81
2022/06/07 08:51:28;;;;;;;4.22;1.38;;;21.40;99.90;;;;;;5050922;28;20171;-82
2022/06/07 08:53:58;;;;;;;7.75;1.48;;;21.40;99.90;;;;;;5051805;28;20658;-82
2022/06/07 08:56:32;;;;;;;1.60;1.35;;;21.30;99.90;;;;;;5050962;28;20185;-81
2022/06/07 08:59:05;;;;;;;8.13;2.38;;;21.50;99.90;;;;;;5051399;28;20293;-83
2022/06/07 09:01:49;;;;;;;6.15;1.45;;;21.60;99.90;;;;;;5053216;28;20179;-81
2022/06/07 09:04:36;;;;;;;1.83;1.40;;;21.20;99.90;;;;;;5051861;28;20171;-82
2022/06/07 09:07:23;;;;;;;1.63;1.40;;;21.30;99.90;;;;;;5051778;28;20179;-82
2022/06/07 09:12:39;;;;;;;4.35;1.75;;;21.30;99.90;;;;;;5053306;28;20186;-80
2022/06/07 09:15:16;;;;;;;2.70;1.30;;;20.90;99.90;;;;;;5052176;28;20167;-81
2022/06/07 09:17:48;;;;;;;5.10;1.67;;;20.80;99.90;;;;;;5052817;28;20202;-81
2022/06/07 09:20:20;;;;;;;6.90;1.73;;;20.60;99.90;;;;;;5053075;28;20186;-81
2022/06/07 09:22:57;;;;;;;7.03;1.60;;;20.50;99.90;;;;;;5052112;28;20170;-82
2022/06/07 09:25:42;;;;;;;5.13;1.65;;;20.70;99.90;;;;;;5051910;28;20194;-81
2022/06/07 09:28:14;;;;;;;2.60;1.67;;;20.50;99.90;;;;;;5052162;28;20167;-83
2022/06/07 09:30:46;;;;;;;3.33;1.95;;;19.80;99.90;;;;;;5053146;28;20195;-81
2022/06/07 09:33:25;;;;;;;4.28;1.63;;;19.50;99.90;;;;;;5051473;28;20507;-80
2022/06/07 09:35:54;;;;;;;5.53;2.03;;;19.60;99.90;;;;;;5051443;28;20167;-80
2022/06/07 09:38:55;;;;;;;5.00;2.22;;;19.60;99.90;;;;;;5053145;28;20195;-83
2022/06/07 09:41:40;;;;;;;5.35;1.80;;;19.30;99.90;;;;;;5062135;28;20194;-82
2022/06/07 09:44:21;;;;;;;13.40;2.45;;;18.90;99.90;;;;;;5051286;28;20171;-82
2022/06/07 09:47:05;;;;;;;5.00;2.15;;;19.20;99.90;;;;;;5051539;28;20169;-83
2022/06/07 09:49:44;;;;;;;6.78;2.17;;;19.30;99.90;;;;;;5051271;28;20190;-82
2022/06/07 09:52:23;;;;;;;3.53;1.92;;;19.40;99.90;;;;;;5052485;28;20659;-82
2022/06/07 09:54:53;;;;;;;5.05;2.28;;;19.80;99.90;;;;;;5051687;28;20212;-81
2022/06/07 09:57:42;;;;;;;4.15;1.73;;;19.80;99.90;;;;;;5051559;28;20203;-82
2022/06/07 10:00:46;;;;;;;6.25;2.35;;;20.00;99.90;;;;;;5051203;28;20187;-83
2022/06/07 10:03:30;;;;;;;8.10;3.40;;;19.80;99.90;;;;;;5056124;28;20187;-83
2022/06/07 10:06:26;;;;;;;11.48;3.10;;;20.00;99.90;;;;;;5051237;28;20171;-82
2022/06/07 10:09:17;;;;;;;8.77;3.00;;;20.30;99.90;;;;;;5051346;28;20226;-81
2022/06/07 10:12:14;;;;;;;4.50;3.05;;;20.00;99.90;;;;;;5051466;28;20170;-82
2022/06/07 10:14:50;;;;;;;12.07;3.25;;;20.20;99.90;;;;;;5052273;28;20289;-83
2022/06/07 10:17:41;;;;;;;11.30;3.88;;;20.10;99.90;;;;;;5052389;28;20247;-82
2022/06/07 10:20:19;;;;;;;11.13;3.60;;;20.20;99.90;;;;;;5052694;28;20202;-82
2022/06/07 10:23:06;;;;;;;6.90;4.13;;;20.00;99.90;;;;;;5051208;28;20179;-82
2022/06/07 10:26:00;;;;;;;6.55;4.65;;;19.90;99.90;;;;;;5052786;28;20187;-84
2022/06/07 10:29:03;;;;;;;7.15;6.00;;;19.90;99.90;;;;;;5052876;28;20187;-83
2022/06/07 10:31:29;;;;;;;14.57;4.57;;;19.90;99.90;;;;;;5052888;28;20171;-83
2022/06/07 10:34:06;;;;;;;9.65;4.45;;;19.90;99.90;;;;;;5051171;28;20175;-82
2022/06/07 10:36:37;;;;;;;7.15;2.95;;;19.70;99.90;;;;;;5052645;28;20171;-81
2022/06/07 10:39:31;;;;;;;6.28;2.97;;;19.60;99.90;;;;;;5052490;28;20215;-82
2022/06/07 10:42:15;;;;;;;7.72;3.08;;;19.40;99.90;;;;;;5052679;28;20171;-80
2022/06/07 10:44:49;;;;;;;9.25;4.93;;;19.40;99.90;;;;;;5051192;28;20226;-82
2022/06/07 10:47:22;;;;;;;4.85;3.97;;;19.60;99.90;;;;;;5052295;28;20167;-83
2022/06/07 10:49:58;;;;;;;5.00;3.50;;;19.80;99.90;;;;;;5050564;28;20493;-82
2022/06/07 10:52:51;;;;;;;7.65;2.92;;;19.80;99.90;;;;;;5052122;28;20182;-83
2022/06/07 10:55:20;;;;;;;7.43;3.72;;;19.40;99.90;;;;;;5051863;28;20171;-83
2022/06/07 10:57:59;;;;;;;5.85;3.85;;;19.40;99.90;;;;;;5050914;28;20685;-83
2022/06/07 11:00:36;;;;;;;10.00;3.83;;;19.10;99.90;;;;;;5054311;28;20194;-83
2022/06/07 11:03:26;;;;;;;7.07;3.38;;;19.20;99.90;;;;;;5054806;28;20171;-84
2022/06/07 11:09:19;;;;;;;10.63;4.88;;;19.30;99.90;;;;;;5056170;28;20198;-83
2022/06/07 11:11:48;;;;;;;6.75;4.25;;;19.30;99.90;;;;;;5054565;28;20175;-83
2022/06/07 11:14:32;;;;;;;7.90;3.65;;;19.30;99.90;;;;;;5055983;28;20163;-83
2022/06/07 11:17:29;;;;;;;12.57;6.35;;;19.60;99.90;;;;;;5055827;28;20249;-83
2022/06/07 11:19:58;;;;;;;10.07;7.10;;;19.70;99.90;;;;;;5054588;28;20202;-83
2022/06/07 11:22:31;;;;;;;14.75;8.88;;;19.80;99.90;;;;;;5054588;28;20186;-83
2022/06/07 11:25:00;;;;;;;13.05;7.03;;;19.70;99.90;;;;;;5069853;22;20227;-79
2022/06/07 11:27:29;;;;;;;12.00;7.53;;;19.80;99.90;;;;;;5056033;28;20242;-80
2022/06/07 11:30:27;;;;;;;8.05;6.25;;;20.00;99.90;;;;;;5055690;28;20222;-79
2022/06/07 11:32:56;;;;;;;7.93;6.22;;;20.50;99.90;;;;;;5056136;28;20170;-79
2022/06/07 11:35:47;;;;;;;11.57;6.63;;;20.50;99.90;;;;;;5058017;28;20663;-80
2022/06/07 11:38:26;;;;;;;14.98;6.13;;;20.50;99.90;;;;;;5056740;28;20203;-79
2022/06/07 11:41:36;;;;;;;11.35;6.90;;;21.10;99.90;;;;;;5057896;28;20167;-81
2022/06/07 11:43:49;;;;;;;9.98;7.38;;;20.70;99.90;;;;;;5055744;28;20175;-80
2022/06/07 11:46:37;;;;;;;11.05;8.48;;;20.90;99.90;;;;;;5055567;28;20163;-79
2022/06/07 11:49:18;;;;;;;17.60;10.70;;;20.80;99.90;;;;;;5055214;28;20758;-79
2022/06/07 11:52:01;;;;;;;16.38;9.45;;;21.10;99.90;;;;;;5054307;28;20179;-79
2022/06/07 11:54:30;;;;;;;19.80;13.43;;;21.10;99.90;;;;;;5055613;28;20225;-79
2022/06/07 11:57:20;;;;;;;13.50;8.38;;;21.50;99.90;;;;;;5055435;28;20167;-79
2022/06/07 12:00:03;;;;;;;9.93;6.93;;;21.50;99.90;;;;;;5055628;28;20187;-80
2022/06/07 12:02:37;;;;;;;8.13;6.97;;;21.60;99.90;;;;;;5055975;28;20749;-80
2022/06/07 12:05:31;;;;;;;7.85;7.13;;;22.00;99.90;;;;;;5055567;28;20623;-81
2022/06/07 12:07:59;;;;;;;8.18;7.13;;;22.20;99.90;;;;;;5025502;28;20258;-81
2022/06/07 12:10:33;;;;;;;13.63;7.13;;;22.40;99.90;;;;;;5055027;28;20233;-79
2022/06/07 12:12:59;;;;;;;10.57;5.35;;;22.40;99.90;;;;;;5055162;28;20576;-79
2022/06/07 12:15:31;;;;;;;9.15;6.15;;;22.60;99.90;;;;;;5054880;28;20171;-79
2022/06/07 12:18:03;;;;;;;8.80;5.32;;;22.30;99.90;;;;;;5054316;28;20232;-79
2022/06/07 12:20:37;;;;;;;8.38;4.88;;;22.30;99.90;;;;;;5056221;28;20199;-80
2022/06/07 12:23:31;;;;;;;4.85;4.45;;;22.20;99.90;;;;;;5066554;28;20175;-80
2022/06/07 12:26:02;;;;;;;4.97;4.47;;;22.40;99.90;;;;;;5052459;28;20194;-82
2022/06/07 12:28:32;;;;;;;7.20;4.22;;;22.70;99.90;;;;;;5054101;28;20164;-81
2022/06/07 12:30:58;;;;;;;5.13;4.10;;;22.50;99.90;;;;;;5054030;28;20202;-82
2022/06/07 12:33:32;;;;;;;9.57;4.60;;;22.90;99.90;;;;;;5057626;28;20177;-82
2022/06/07 12:36:23;;;;;;;4.30;3.90;;;23.10;99.90;;;;;;5061960;28;20162;-82
2022/06/07 12:38:51;;;;;;;4.15;3.85;;;22.70;99.90;;;;;;5076812;28;20215;-83
2022/06/07 12:41:25;;;;;;;6.50;3.83;;;22.50;99.90;;;;;;5054795;28;20168;-80
2022/06/07 12:44:02;;;;;;;4.50;4.20;;;22.50;99.90;;;;;;5054298;28;20240;-82
2022/06/07 12:46:32;;;;;;;4.35;3.35;;;22.00;99.90;;;;;;5054365;28;20262;-83
2022/06/07 12:48:59;;;;;;;5.20;4.22;;;22.10;99.90;;;;;;5053789;28;20214;-82
2022/06/07 12:51:24;;;;;;;4.22;3.50;;;22.40;99.90;;;;;;5054587;28;20175;-82
2022/06/07 12:53:59;;;;;;;4.57;4.18;;;22.60;99.90;;;;;;5056133;28;20253;-82
2022/06/07 12:56:30;;;;;;;4.30;4.00;;;22.70;99.90;;;;;;5056513;28;20231;-81
2022/06/07 12:58:57;;;;;;;11.15;3.13;;;22.60;99.90;;;;;;5054919;28;20198;-82
2022/06/07 13:01:32;;;;;;;3.95;3.55;;;22.60;99.90;;;;;;5056159;28;20194;-81
2022/06/07 13:04:14;;;;;;;4.82;4.32;;;22.80;99.90;;;;;;5054115;28;20588;-82
2022/06/07 13:06:55;;;;;;;3.78;3.47;;;22.70;99.90;;;;;;5057083;28;20163;-82
2022/06/07 13:09:21;;;;;;;4.13;3.72;;;22.40;99.90;;;;;;5053532;28;20549;-81
2022/06/07 13:11:47;;;;;;;3.88;3.53;;;22.40;99.90;;;;;;5055023;28;20163;-82
2022/06/07 13:14:17;;;;;;;4.40;4.00;;;22.40;99.90;;;;;;5054859;28;20701;-82
2022/06/07 13:16:46;;;;;;;4.00;3.58;;;22.00;99.90;;;;;;5053495;28;20254;-80
2022/06/07 13:19:28;;;;;;;4.25;3.85;;;21.90;99.90;;;;;;5053939;28;20207;-81
2022/06/07 13:22:02;;;;;;;4.50;4.10;;;22.00;99.90;;;;;;5053564;28;20281;-77
2022/06/07 13:24:35;;;;;;;5.60;4.80;;;22.10;99.90;;;;;;5054443;28;20170;-77